ENSO

Stord Airport

Leirvik, Norway
METAR ENSO 201720Z 35006KT CAVOK 19/07 Q1012
Observed Flight Rules
Jul-20 @ 17:20 UTC (17 hours ago) Visual Flight Rules
Wind Visibility Clouds
350° at 6 knots 10,000+ meters
  • Clear skies
Temperatures Readings
Current 19°C / 66°F
Dewpoint 7°C / 45°F
Humidity 46%
Altimeter 29.88" Hg
Pressure 1012 hPa
Elevation 49
METAR ENSO 201720Z 35006KT CAVOK 19/07 Q1012
Observed Flight Rules
Jul-20 @ 17:20 UTC
(17 hours ago)
VFR
Wind Visibility
350° at 6 knots 10,000+ meters
Clouds
  • Clear skies
Temperature Dewpoint
19°C / 66°F 7°C / 45°F
Humidity Altimeter Pressure
46% 29.88" Hg 1012 hPa